Time;durP1;ratioP1;P1;durP2;ratioP2;P2;SDS_P1;SDS_P2;PMS_P1;PMS_P2;Temp;Humidity;BMP_temperature;BMP_pressure;BME280_temperature;BME280_humidity;BME280_pressure;Samples;Min_cycle;Max_cycle;Signal;HPM_P1;HPM_P2
2021/09/13 00:00:49;;;;;;;2.38;1.13;;;;;;;;;;5070198;28;20502;-56
2021/09/13 00:03:15;;;;;;;1.33;1.00;;;;;;;;;;5064943;28;20059;-56
2021/09/13 00:05:41;;;;;;;1.27;1.17;;;;;;;;;;5047446;28;20024;-56
2021/09/13 00:08:08;;;;;;;0.82;0.82;;;;;;;;;;5065085;28;20078;-55
2021/09/13 00:10:34;;;;;;;0.80;0.70;;;;;;;;;;5031171;28;20021;-55
2021/09/13 00:13:00;;;;;;;1.65;0.70;;;;;;;;;;5064585;28;20136;-56
2021/09/13 00:15:26;;;;;;;0.85;0.77;;;;;;;;;;5049321;28;20032;-55
2021/09/13 00:17:53;;;;;;;1.50;1.10;;;;;;;;;;5069852;28;20117;-56
2021/09/13 00:20:19;;;;;;;1.42;1.05;;;;;;;;;;5068030;28;20024;-55
2021/09/13 00:22:45;;;;;;;1.00;0.70;;;;;;;;;;5081712;28;20036;-55
2021/09/13 00:25:11;;;;;;;0.80;0.80;;;;;;;;;;5066814;28;20039;-55
2021/09/13 00:27:37;;;;;;;1.10;1.00;;;;;;;;;;5067940;28;20036;-54
2021/09/13 00:30:04;;;;;;;1.67;1.08;;;;;;;;;;5068939;28;20032;-55
2021/09/13 00:32:31;;;;;;;1.00;0.73;;;;;;;;;;5051331;28;20678;-56
2021/09/13 00:34:57;;;;;;;1.27;0.88;;;;;;;;;;5069772;28;20043;-55
2021/09/13 00:37:23;;;;;;;1.33;1.05;;;;;;;;;;5059278;28;20032;-54
2021/09/13 00:39:50;;;;;;;0.80;0.80;;;;;;;;;;5089237;28;20040;-54
2021/09/13 00:42:16;;;;;;;0.93;0.90;;;;;;;;;;5068127;28;20127;-51
2021/09/13 00:44:42;;;;;;;1.05;0.93;;;;;;;;;;5087980;28;20051;-54
2021/09/13 00:47:08;;;;;;;1.15;0.98;;;;;;;;;;5087778;28;20499;-55
2021/09/13 00:49:35;;;;;;;1.05;0.90;;;;;;;;;;5087562;28;20028;-55
2021/09/13 00:52:01;;;;;;;1.08;1.00;;;;;;;;;;5075356;28;20028;-55
2021/09/13 00:54:28;;;;;;;2.47;0.82;;;;;;;;;;5068029;28;20457;-54
2021/09/13 00:56:55;;;;;;;1.75;1.02;;;;;;;;;;5067912;28;20134;-54
2021/09/13 00:59:21;;;;;;;1.05;0.95;;;;;;;;;;5056821;28;20032;-56
2021/09/13 01:01:47;;;;;;;0.73;0.73;;;;;;;;;;5077611;28;20327;-53
2021/09/13 01:04:13;;;;;;;1.38;1.10;;;;;;;;;;5067191;28;20025;-55
2021/09/13 01:06:39;;;;;;;0.98;0.90;;;;;;;;;;5048870;28;20036;-53
2021/09/13 01:09:05;;;;;;;1.60;0.80;;;;;;;;;;5066657;28;20024;-55
2021/09/13 01:11:32;;;;;;;1.15;1.02;;;;;;;;;;5066746;28;20396;-55
2021/09/13 01:13:58;;;;;;;1.55;0.90;;;;;;;;;;5067233;28;20095;-55
2021/09/13 01:16:24;;;;;;;1.02;0.93;;;;;;;;;;5049457;28;20063;-54
2021/09/13 01:18:50;;;;;;;1.00;0.90;;;;;;;;;;5048987;28;20059;-56
2021/09/13 01:21:17;;;;;;;0.88;0.88;;;;;;;;;;5066400;28;20033;-55
2021/09/13 01:23:43;;;;;;;0.98;0.85;;;;;;;;;;5055732;28;20028;-55
2021/09/13 01:26:09;;;;;;;0.77;0.73;;;;;;;;;;5086460;28;20043;-55
2021/09/13 01:28:36;;;;;;;0.88;0.82;;;;;;;;;;5085906;28;20035;-55
2021/09/13 01:31:02;;;;;;;0.93;0.88;;;;;;;;;;5068368;28;20021;-54
2021/09/13 01:33:28;;;;;;;1.13;0.90;;;;;;;;;;5048604;28;20553;-53
2021/09/13 01:35:54;;;;;;;0.73;0.70;;;;;;;;;;5067374;28;20195;-55
2021/09/13 01:38:24;;;;;;;1.52;1.10;;;;;;;;;;5066335;28;20739;-55
2021/09/13 01:40:50;;;;;;;0.90;0.90;;;;;;;;;;5065997;28;20039;-54
2021/09/13 01:43:17;;;;;;;1.05;0.95;;;;;;;;;;5065691;28;20055;-53
2021/09/13 01:45:43;;;;;;;1.13;0.98;;;;;;;;;;5048240;28;20508;-55
2021/09/13 01:48:09;;;;;;;0.90;0.90;;;;;;;;;;5065004;28;20580;-56
2021/09/13 01:50:35;;;;;;;1.25;0.80;;;;;;;;;;5065121;28;20016;-54
2021/09/13 01:53:01;;;;;;;1.48;1.10;;;;;;;;;;5065399;28;20024;-55
2021/09/13 01:55:27;;;;;;;1.13;1.02;;;;;;;;;;5065853;28;20107;-55
2021/09/13 01:57:53;;;;;;;1.05;0.90;;;;;;;;;;5048765;28;20119;-54
2021/09/13 02:00:20;;;;;;;1.00;0.90;;;;;;;;;;5065788;28;20518;-56
2021/09/13 02:02:46;;;;;;;2.72;0.80;;;;;;;;;;5065912;28;20025;-52
2021/09/13 02:05:12;;;;;;;1.20;0.98;;;;;;;;;;5066137;28;20200;-55
2021/09/13 02:07:38;;;;;;;0.70;0.70;;;;;;;;;;5065645;28;20028;-55
2021/09/13 02:10:05;;;;;;;1.30;1.10;;;;;;;;;;5065210;28;20035;-55
2021/09/13 02:12:31;;;;;;;0.82;0.80;;;;;;;;;;5065512;28;20051;-55
2021/09/13 02:14:57;;;;;;;1.05;0.95;;;;;;;;;;5065829;28;20025;-55
2021/09/13 02:17:23;;;;;;;0.93;0.93;;;;;;;;;;5048579;28;20106;-54
2021/09/13 02:19:51;;;;;;;1.67;1.20;;;;;;;;;;5047663;28;20032;-56
2021/09/13 02:22:17;;;;;;;0.75;0.75;;;;;;;;;;5054425;28;20098;-55
2021/09/13 02:24:44;;;;;;;0.77;0.77;;;;;;;;;;5066001;28;20432;-55
2021/09/13 02:27:14;;;;;;;0.70;0.70;;;;;;;;;;5047545;28;20029;-52
2021/09/13 02:29:40;;;;;;;0.85;0.70;;;;;;;;;;5065719;28;20522;-55
2021/09/13 02:32:07;;;;;;;0.70;0.70;;;;;;;;;;5078269;28;20031;-55
2021/09/13 02:34:33;;;;;;;1.20;1.00;;;;;;;;;;5080273;28;20566;-55
2021/09/13 02:37:00;;;;;;;3.45;1.00;;;;;;;;;;5085696;28;20052;-52
2021/09/13 02:39:26;;;;;;;0.82;0.80;;;;;;;;;;5079610;28;20029;-55
2021/09/13 02:41:52;;;;;;;0.98;0.90;;;;;;;;;;5065892;28;20036;-54
2021/09/13 02:44:18;;;;;;;1.65;0.95;;;;;;;;;;5065746;28;20410;-54
2021/09/13 02:46:44;;;;;;;1.77;1.10;;;;;;;;;;5086164;28;20024;-53
2021/09/13 02:49:10;;;;;;;1.00;0.88;;;;;;;;;;5085517;28;20035;-53
2021/09/13 02:51:36;;;;;;;0.70;0.70;;;;;;;;;;5085342;28;20467;-55
2021/09/13 02:54:02;;;;;;;1.00;0.80;;;;;;;;;;5067726;28;20035;-54
2021/09/13 02:56:28;;;;;;;0.98;0.70;;;;;;;;;;5065412;28;20024;-53
2021/09/13 02:58:54;;;;;;;0.90;0.90;;;;;;;;;;5065931;28;20024;-55
2021/09/13 03:01:20;;;;;;;0.82;0.77;;;;;;;;;;5065354;28;20028;-54
2021/09/13 03:03:47;;;;;;;1.20;1.10;;;;;;;;;;5078394;28;20032;-55
2021/09/13 03:06:13;;;;;;;1.15;1.05;;;;;;;;;;5066745;28;20106;-54
2021/09/13 03:08:43;;;;;;;0.93;0.85;;;;;;;;;;5067179;28;20036;-55
2021/09/13 03:11:09;;;;;;;0.90;0.90;;;;;;;;;;5085130;28;20043;-55
2021/09/13 03:13:37;;;;;;;0.90;0.90;;;;;;;;;;5072374;28;20042;-53
2021/09/13 03:16:04;;;;;;;0.70;0.70;;;;;;;;;;5046902;28;20023;-55
2021/09/13 03:18:30;;;;;;;1.13;1.05;;;;;;;;;;5046609;28;20034;-54
2021/09/13 03:20:57;;;;;;;1.00;0.88;;;;;;;;;;5052210;28;20024;-55
2021/09/13 03:23:23;;;;;;;0.88;0.80;;;;;;;;;;5073761;28;20035;-56
2021/09/13 03:25:49;;;;;;;0.98;0.90;;;;;;;;;;5063233;28;20472;-55
2021/09/13 03:28:16;;;;;;;0.85;0.85;;;;;;;;;;5084966;28;20542;-55
2021/09/13 03:30:43;;;;;;;0.70;0.70;;;;;;;;;;5085220;28;20016;-53
2021/09/13 03:33:09;;;;;;;1.23;1.10;;;;;;;;;;5083197;28;20055;-54
2021/09/13 03:35:35;;;;;;;0.80;0.80;;;;;;;;;;5066640;28;20088;-50
2021/09/13 03:38:01;;;;;;;0.80;0.80;;;;;;;;;;5085188;28;20034;-54
2021/09/13 03:40:27;;;;;;;1.02;1.00;;;;;;;;;;5084806;28;20085;-54
2021/09/13 03:42:54;;;;;;;0.98;0.88;;;;;;;;;;5078262;28;20056;-54
2021/09/13 03:45:20;;;;;;;0.82;0.80;;;;;;;;;;5064567;28;20035;-52
2021/09/13 03:47:48;;;;;;;0.70;0.70;;;;;;;;;;5064565;28;20042;-53
2021/09/13 03:50:14;;;;;;;1.15;0.73;;;;;;;;;;5063556;28;20052;-54
2021/09/13 03:52:40;;;;;;;1.65;0.90;;;;;;;;;;5063994;28;20086;-54
2021/09/13 03:55:07;;;;;;;0.80;0.80;;;;;;;;;;5064440;28;20024;-53
2021/09/13 03:57:33;;;;;;;1.02;0.80;;;;;;;;;;5064622;28;20107;-54
2021/09/13 03:59:59;;;;;;;1.27;1.13;;;;;;;;;;5064646;28;20094;-53
2021/09/13 04:02:26;;;;;;;0.80;0.80;;;;;;;;;;5065273;28;20052;-53
2021/09/13 04:04:53;;;;;;;0.80;0.80;;;;;;;;;;5046837;28;20495;-54
2021/09/13 04:07:25;;;;;;;1.38;1.08;;;;;;;;;;5046280;28;20032;-54
2021/09/13 04:10:15;;;;;;;0.80;0.80;;;;;;;;;;5045618;28;20145;-55
2021/09/13 04:12:41;;;;;;;1.17;0.90;;;;;;;;;;5063797;28;20039;-55
2021/09/13 04:15:08;;;;;;;1.10;1.00;;;;;;;;;;5064155;28;20028;-55
2021/09/13 04:17:34;;;;;;;1.10;1.00;;;;;;;;;;5064487;28;20523;-55
2021/09/13 04:20:00;;;;;;;1.00;0.90;;;;;;;;;;5063796;28;20029;-55
2021/09/13 04:22:26;;;;;;;1.20;1.10;;;;;;;;;;5084502;28;20058;-55
2021/09/13 04:24:52;;;;;;;1.20;1.00;;;;;;;;;;5062909;28;20020;-56
2021/09/13 04:27:18;;;;;;;1.30;1.02;;;;;;;;;;5064557;28;20403;-54
2021/09/13 04:29:44;;;;;;;2.25;1.13;;;;;;;;;;5063842;28;20025;-55
2021/09/13 04:32:10;;;;;;;0.85;0.85;;;;;;;;;;5075501;28;20035;-55
2021/09/13 04:34:36;;;;;;;1.10;1.10;;;;;;;;;;5065551;28;20032;-55
2021/09/13 04:37:03;;;;;;;0.80;0.80;;;;;;;;;;5063840;28;20048;-54
2021/09/13 04:39:28;;;;;;;0.82;0.80;;;;;;;;;;5064583;28;20032;-54
2021/09/13 04:41:54;;;;;;;0.98;0.93;;;;;;;;;;5065023;28;20037;-52
2021/09/13 04:44:20;;;;;;;1.48;0.90;;;;;;;;;;5060061;28;20514;-54
2021/09/13 04:46:46;;;;;;;1.63;0.98;;;;;;;;;;5084714;28;20043;-53
2021/09/13 04:49:13;;;;;;;0.98;0.98;;;;;;;;;;5083597;28;20554;-56
2021/09/13 04:51:39;;;;;;;1.08;0.98;;;;;;;;;;5059429;28;20322;-53
2021/09/13 04:54:05;;;;;;;1.00;1.00;;;;;;;;;;5063458;28;20418;-53
2021/09/13 04:56:31;;;;;;;1.92;1.33;;;;;;;;;;5064487;28;20340;-52
2021/09/13 04:58:57;;;;;;;1.08;0.98;;;;;;;;;;5064478;28;20021;-55
2021/09/13 05:01:23;;;;;;;1.02;0.90;;;;;;;;;;5064736;28;20078;-55
2021/09/13 05:03:49;;;;;;;1.17;1.05;;;;;;;;;;5067619;28;20032;-55
2021/09/13 05:06:16;;;;;;;1.08;0.98;;;;;;;;;;5065812;28;20498;-55
2021/09/13 05:08:42;;;;;;;1.67;0.90;;;;;;;;;;5067567;28;20166;-55
2021/09/13 05:11:08;;;;;;;0.90;0.90;;;;;;;;;;5080617;28;20020;-55
2021/09/13 05:13:34;;;;;;;1.05;0.95;;;;;;;;;;5069401;28;20028;-56
2021/09/13 05:16:00;;;;;;;1.02;0.90;;;;;;;;;;5069758;28;20454;-56
2021/09/13 05:18:26;;;;;;;1.30;1.10;;;;;;;;;;5071399;28;20030;-55
2021/09/13 05:20:52;;;;;;;0.80;0.80;;;;;;;;;;5088248;28;20051;-55
2021/09/13 05:23:19;;;;;;;1.42;0.90;;;;;;;;;;5080366;28;20115;-56
2021/09/13 05:25:45;;;;;;;1.02;0.80;;;;;;;;;;5068075;28;20039;-56
2021/09/13 05:28:11;;;;;;;1.10;1.00;;;;;;;;;;5070072;28;20032;-53
2021/09/13 05:30:37;;;;;;;1.30;0.90;;;;;;;;;;5050641;28;20123;-54
2021/09/13 05:33:04;;;;;;;1.00;0.90;;;;;;;;;;5050474;28;20020;-54
2021/09/13 05:35:30;;;;;;;2.05;1.00;;;;;;;;;;5068492;28;20019;-53
2021/09/13 05:37:56;;;;;;;1.02;0.93;;;;;;;;;;5050677;28;20025;-55
2021/09/13 05:40:22;;;;;;;1.00;0.93;;;;;;;;;;5088050;28;20024;-55
2021/09/13 05:42:49;;;;;;;1.08;0.98;;;;;;;;;;5088597;28;20115;-55
2021/09/13 05:45:15;;;;;;;2.25;1.10;;;;;;;;;;5088366;28;20103;-55
2021/09/13 05:47:41;;;;;;;0.88;0.88;;;;;;;;;;5074761;28;20017;-55
2021/09/13 05:50:07;;;;;;;2.10;0.90;;;;;;;;;;5047942;28;20021;-54
2021/09/13 05:52:33;;;;;;;0.93;0.90;;;;;;;;;;5062812;28;20035;-55
2021/09/13 05:55:01;;;;;;;1.48;0.90;;;;;;;;;;5069867;28;20054;-55
2021/09/13 05:57:27;;;;;;;0.93;0.88;;;;;;;;;;5070740;28;20032;-56
2021/09/13 05:59:53;;;;;;;1.38;1.17;;;;;;;;;;5088590;28;20024;-55
2021/09/13 06:02:19;;;;;;;1.15;0.95;;;;;;;;;;5074878;28;20040;-54
2021/09/13 06:04:46;;;;;;;1.30;1.20;;;;;;;;;;5080038;28;20060;-54
2021/09/13 06:07:12;;;;;;;1.30;0.98;;;;;;;;;;5067266;28;20043;-55
2021/09/13 06:09:39;;;;;;;0.90;0.90;;;;;;;;;;5072099;28;20080;-54
2021/09/13 06:12:05;;;;;;;1.15;1.05;;;;;;;;;;5057745;28;20028;-55
2021/09/13 06:14:31;;;;;;;1.23;1.13;;;;;;;;;;5067378;28;20089;-55
2021/09/13 06:16:58;;;;;;;0.95;0.88;;;;;;;;;;5059526;28;20081;-55
2021/09/13 06:19:24;;;;;;;0.90;0.90;;;;;;;;;;5083140;28;20038;-55
2021/09/13 06:21:50;;;;;;;0.90;0.90;;;;;;;;;;5082214;28;20039;-56
2021/09/13 06:24:16;;;;;;;1.55;1.10;;;;;;;;;;5083172;28;20029;-54
2021/09/13 06:26:42;;;;;;;1.23;1.00;;;;;;;;;;5066622;28;20536;-56
2021/09/13 06:29:09;;;;;;;1.15;1.02;;;;;;;;;;5048696;28;20025;-55
2021/09/13 06:31:35;;;;;;;1.25;1.00;;;;;;;;;;5066091;28;20111;-54
2021/09/13 06:34:01;;;;;;;1.00;0.90;;;;;;;;;;5063380;28;20020;-54
2021/09/13 06:36:27;;;;;;;1.85;1.10;;;;;;;;;;5057065;28;20057;-53
2021/09/13 06:38:53;;;;;;;1.20;1.10;;;;;;;;;;5065018;28;20032;-56
2021/09/13 06:41:20;;;;;;;1.30;1.20;;;;;;;;;;5072067;28;20047;-54
2021/09/13 06:43:47;;;;;;;1.13;1.02;;;;;;;;;;5060156;28;20075;-54
2021/09/13 06:46:25;;;;;;;1.13;1.02;;;;;;;;;;5066123;28;20127;-54
2021/09/13 06:48:51;;;;;;;1.10;1.00;;;;;;;;;;5066771;28;20066;-56
2021/09/13 06:51:18;;;;;;;1.40;1.13;;;;;;;;;;5051175;28;20060;-55
2021/09/13 06:53:44;;;;;;;1.58;1.38;;;;;;;;;;5049204;28;20017;-55
2021/09/13 06:56:14;;;;;;;2.53;1.65;;;;;;;;;;5049229;28;20033;-55
2021/09/13 06:58:40;;;;;;;1.15;1.05;;;;;;;;;;5048302;28;20451;-55
2021/09/13 07:01:06;;;;;;;1.25;1.00;;;;;;;;;;5066918;28;20709;-55
2021/09/13 07:03:32;;;;;;;1.02;0.90;;;;;;;;;;5066581;28;20028;-56
2021/09/13 07:05:59;;;;;;;1.77;1.00;;;;;;;;;;5052804;28;20028;-55
2021/09/13 07:08:25;;;;;;;1.35;1.05;;;;;;;;;;5084457;28;20385;-55
2021/09/13 07:10:51;;;;;;;1.02;0.93;;;;;;;;;;5066914;28;20082;-55
2021/09/13 07:13:17;;;;;;;1.38;0.90;;;;;;;;;;5066288;28;20024;-55
2021/09/13 07:15:44;;;;;;;0.85;0.80;;;;;;;;;;5085193;28;20024;-55
2021/09/13 07:18:10;;;;;;;1.08;0.93;;;;;;;;;;5066464;28;20036;-55
2021/09/13 07:20:36;;;;;;;1.25;0.80;;;;;;;;;;5066753;28;20103;-54
2021/09/13 07:23:02;;;;;;;1.15;1.05;;;;;;;;;;5066762;28;20025;-55
2021/09/13 07:25:29;;;;;;;1.10;0.90;;;;;;;;;;5055823;28;20100;-56
2021/09/13 07:27:55;;;;;;;0.77;0.77;;;;;;;;;;5066664;28;20020;-55
2021/09/13 07:30:21;;;;;;;1.27;0.90;;;;;;;;;;5066373;28;20044;-56
2021/09/13 07:32:48;;;;;;;0.80;0.80;;;;;;;;;;5069774;28;20488;-56
2021/09/13 07:35:14;;;;;;;1.27;1.17;;;;;;;;;;5066354;28;20109;-56
2021/09/13 07:37:40;;;;;;;1.08;0.98;;;;;;;;;;5066370;28;20491;-52
2021/09/13 07:40:07;;;;;;;0.73;0.73;;;;;;;;;;5066384;28;20028;-53
2021/09/13 07:42:33;;;;;;;0.80;0.80;;;;;;;;;;5065098;28;20153;-55
2021/09/13 07:45:01;;;;;;;1.00;0.95;;;;;;;;;;5044212;28;20096;-56
2021/09/13 07:47:28;;;;;;;0.77;0.65;;;;;;;;;;5066577;28;20499;-56
2021/09/13 07:49:54;;;;;;;0.95;0.95;;;;;;;;;;5066212;28;20031;-56
2021/09/13 07:52:20;;;;;;;0.75;0.75;;;;;;;;;;5061539;28;20154;-56
2021/09/13 07:54:46;;;;;;;0.65;0.60;;;;;;;;;;5066088;28;20069;-56
2021/09/13 07:57:12;;;;;;;0.70;0.70;;;;;;;;;;5082305;28;20035;-55
2021/09/13 07:59:38;;;;;;;0.80;0.80;;;;;;;;;;5066732;28;20567;-55
2021/09/13 08:02:04;;;;;;;0.80;0.50;;;;;;;;;;5073145;28;20105;-55
2021/09/13 08:04:30;;;;;;;0.60;0.60;;;;;;;;;;5071894;28;20036;-55
2021/09/13 08:06:58;;;;;;;0.65;0.65;;;;;;;;;;5068282;28;20052;-56
2021/09/13 08:09:24;;;;;;;0.73;0.52;;;;;;;;;;5071382;28;20077;-56
2021/09/13 08:11:50;;;;;;;0.70;0.52;;;;;;;;;;5066485;28;20040;-55
2021/09/13 08:14:16;;;;;;;0.43;0.43;;;;;;;;;;5066500;28;20494;-55
2021/09/13 08:16:42;;;;;;;0.65;0.60;;;;;;;;;;5078837;28;20036;-56
2021/09/13 08:19:08;;;;;;;0.90;0.68;;;;;;;;;;5063259;28;20039;-54
2021/09/13 08:21:39;;;;;;;0.75;0.60;;;;;;;;;;5066236;28;20039;-53
2021/09/13 08:24:06;;;;;;;0.75;0.50;;;;;;;;;;5046458;28;20407;-54
2021/09/13 08:26:34;;;;;;;0.73;0.73;;;;;;;;;;5064541;28;20044;-55
2021/09/13 08:29:00;;;;;;;0.57;0.50;;;;;;;;;;5072502;28;20036;-55
2021/09/13 08:31:27;;;;;;;0.60;0.60;;;;;;;;;;5078172;28;20016;-53
2021/09/13 08:33:54;;;;;;;0.77;0.60;;;;;;;;;;5064863;28;20057;-54
2021/09/13 08:36:21;;;;;;;0.50;0.50;;;;;;;;;;5065072;28;20493;-55
2021/09/13 08:38:47;;;;;;;0.45;0.45;;;;;;;;;;5068680;28;20071;-55
2021/09/13 08:41:14;;;;;;;0.50;0.50;;;;;;;;;;5079624;28;20048;-54
2021/09/13 08:43:43;;;;;;;0.40;0.40;;;;;;;;;;5089319;28;20047;-55
2021/09/13 08:49:07;;;;;;;0.40;0.40;;;;;;;;;;5050415;28;20563;-54
2021/09/13 08:51:33;;;;;;;0.40;0.40;;;;;;;;;;5051124;28;20028;-56
2021/09/13 08:54:04;;;;;;;0.50;0.50;;;;;;;;;;5068437;28;20044;-54
2021/09/13 08:56:38;;;;;;;0.40;0.40;;;;;;;;;;5064282;28;20043;-53
2021/09/13 08:59:05;;;;;;;0.73;0.50;;;;;;;;;;5048490;28;20044;-56
2021/09/13 09:01:32;;;;;;;0.50;0.50;;;;;;;;;;5052594;28;20077;-55
2021/09/13 09:03:58;;;;;;;0.40;0.40;;;;;;;;;;5067950;28;20570;-52
2021/09/13 09:06:34;;;;;;;0.50;0.50;;;;;;;;;;5067003;28;20104;-53
2021/09/13 09:09:02;;;;;;;0.40;0.40;;;;;;;;;;5049860;28;20491;-54
2021/09/13 09:11:48;;;;;;;0.40;0.40;;;;;;;;;;5065328;28;20017;-54
2021/09/13 09:14:35;;;;;;;0.40;0.40;;;;;;;;;;5066882;28;20487;-56
2021/09/13 09:17:03;;;;;;;0.73;0.43;;;;;;;;;;5063878;28;20053;-55
2021/09/13 09:19:29;;;;;;;0.40;0.40;;;;;;;;;;5049192;28;20035;-55
2021/09/13 09:21:57;;;;;;;0.30;0.30;;;;;;;;;;5066881;28;20060;-54
2021/09/13 09:24:24;;;;;;;0.50;0.50;;;;;;;;;;5067769;28;20085;-55
2021/09/13 09:27:01;;;;;;;0.30;0.30;;;;;;;;;;5065114;28;20028;-54
2021/09/13 09:29:28;;;;;;;0.45;0.45;;;;;;;;;;5067399;28;20038;-54
2021/09/13 09:31:57;;;;;;;0.45;0.45;;;;;;;;;;5067952;28;20027;-51
2021/09/13 09:34:28;;;;;;;0.77;0.60;;;;;;;;;;5048888;28;20025;-52
2021/09/13 09:37:00;;;;;;;1.30;1.00;;;;;;;;;;5067195;28;20086;-54
2021/09/13 09:39:33;;;;;;;0.80;0.80;;;;;;;;;;5066693;28;20039;-57
2021/09/13 09:41:59;;;;;;;1.20;1.10;;;;;;;;;;5063121;28;20119;-53
2021/09/13 09:44:26;;;;;;;1.92;0.95;;;;;;;;;;5067507;28;20071;-56
2021/09/13 09:46:54;;;;;;;1.80;1.10;;;;;;;;;;5048041;28;20036;-54
2021/09/13 09:49:22;;;;;;;1.45;1.35;;;;;;;;;;5067236;28;20051;-55
2021/09/13 09:51:55;;;;;;;1.17;1.08;;;;;;;;;;5050051;28;20036;-55
2021/09/13 09:54:26;;;;;;;1.33;1.23;;;;;;;;;;5067087;28;20024;-55
2021/09/13 09:57:04;;;;;;;0.90;0.90;;;;;;;;;;5068865;28;20074;-55
2021/09/13 09:59:35;;;;;;;1.10;1.00;;;;;;;;;;5066211;28;20132;-53
2021/09/13 10:02:10;;;;;;;1.15;1.05;;;;;;;;;;5050313;28;20561;-55
2021/09/13 10:04:36;;;;;;;0.95;0.95;;;;;;;;;;5067775;28;20035;-54
2021/09/13 10:07:03;;;;;;;1.25;1.15;;;;;;;;;;5067870;28;20044;-55
2021/09/13 10:09:30;;;;;;;0.98;0.98;;;;;;;;;;5048967;28;20031;-54
2021/09/13 10:11:58;;;;;;;1.00;0.90;;;;;;;;;;5051636;28;20040;-55
2021/09/13 10:14:26;;;;;;;1.10;1.00;;;;;;;;;;5065784;28;20070;-54
2021/09/13 10:16:52;;;;;;;1.50;1.20;;;;;;;;;;5064384;28;20039;-55
2021/09/13 10:19:20;;;;;;;0.95;0.90;;;;;;;;;;5067425;28;20031;-55
2021/09/13 10:21:49;;;;;;;1.05;0.98;;;;;;;;;;5049922;28;20048;-55
2021/09/13 10:24:18;;;;;;;0.85;0.80;;;;;;;;;;5067938;28;20024;-56
2021/09/13 10:26:50;;;;;;;0.98;0.98;;;;;;;;;;5049266;28;20056;-53
2021/09/13 10:29:17;;;;;;;1.00;1.00;;;;;;;;;;5068183;28;20032;-53
2021/09/13 10:31:46;;;;;;;0.73;0.73;;;;;;;;;;5068440;28;20053;-54
2021/09/13 10:34:16;;;;;;;1.00;1.00;;;;;;;;;;5068357;28;20067;-55
2021/09/13 10:36:58;;;;;;;0.82;0.82;;;;;;;;;;5068391;28;20739;-54
2021/09/13 10:39:44;;;;;;;1.15;1.05;;;;;;;;;;5047278;28;20021;-55
2021/09/13 10:42:10;;;;;;;1.10;1.00;;;;;;;;;;5016581;28;20118;-51
2021/09/13 10:44:36;;;;;;;3.53;1.50;;;;;;;;;;5047871;28;20456;-51
2021/09/13 10:47:06;;;;;;;1.50;1.10;;;;;;;;;;5047207;28;20495;-52
2021/09/13 10:49:32;;;;;;;1.63;1.33;;;;;;;;;;5060752;28;20384;-54
2021/09/13 10:52:17;;;;;;;1.42;1.15;;;;;;;;;;5067243;28;20036;-53
2021/09/13 10:55:02;;;;;;;1.20;1.02;;;;;;;;;;5068295;28;20050;-55
2021/09/13 10:57:48;;;;;;;1.00;0.95;;;;;;;;;;5076409;28;20039;-56
2021/09/13 11:00:14;;;;;;;1.30;1.20;;;;;;;;;;5047940;28;20037;-55
2021/09/13 11:02:40;;;;;;;1.30;1.10;;;;;;;;;;5066211;28;20025;-58
2021/09/13 11:05:20;;;;;;;0.75;0.75;;;;;;;;;;5049404;28;20030;-56
2021/09/13 11:08:05;;;;;;;0.90;0.90;;;;;;;;;;5081126;28;20024;-55
2021/09/13 11:10:48;;;;;;;1.20;1.10;;;;;;;;;;5067973;28;20040;-56
2021/09/13 11:13:16;;;;;;;1.33;1.10;;;;;;;;;;5087394;28;20112;-55
2021/09/13 11:15:49;;;;;;;1.58;1.30;;;;;;;;;;5087481;28;20024;-55
2021/09/13 11:18:34;;;;;;;1.70;1.30;;;;;;;;;;5083430;28;20036;-56
2021/09/13 11:21:20;;;;;;;1.50;0.90;;;;;;;;;;5072738;28;20023;-56
2021/09/13 11:23:46;;;;;;;0.90;0.90;;;;;;;;;;5084167;28;20024;-55
2021/09/13 11:26:12;;;;;;;1.42;1.30;;;;;;;;;;5070791;28;20429;-57
2021/09/13 11:28:57;;;;;;;1.73;1.30;;;;;;;;;;5083879;28;20032;-55
2021/09/13 11:31:34;;;;;;;1.00;1.00;;;;;;;;;;5082979;28;20024;-55
2021/09/13 11:34:02;;;;;;;1.30;1.20;;;;;;;;;;5039937;28;20032;-56
2021/09/13 11:36:29;;;;;;;1.45;1.13;;;;;;;;;;5043068;28;20036;-58
2021/09/13 11:38:59;;;;;;;0.90;0.90;;;;;;;;;;5056228;28;20032;-56
2021/09/13 11:41:26;;;;;;;1.40;1.30;;;;;;;;;;5063960;28;20524;-53
2021/09/13 11:44:03;;;;;;;1.42;1.33;;;;;;;;;;5049334;28;20036;-56
2021/09/13 11:46:30;;;;;;;1.33;1.23;;;;;;;;;;5084643;28;20219;-56
2021/09/13 11:49:13;;;;;;;1.15;1.05;;;;;;;;;;5072395;28;20033;-56
2021/09/13 11:51:58;;;;;;;1.38;1.10;;;;;;;;;;5074664;28;20036;-56
2021/09/13 11:54:24;;;;;;;1.10;1.00;;;;;;;;;;5082798;28;20032;-56
2021/09/13 11:56:51;;;;;;;1.05;1.00;;;;;;;;;;5057047;28;20394;-55
2021/09/13 11:59:21;;;;;;;2.38;1.38;;;;;;;;;;5066281;28;20044;-56
2021/09/13 12:01:55;;;;;;;1.65;1.20;;;;;;;;;;5067520;28;20503;-56
2021/09/13 12:04:21;;;;;;;1.50;1.40;;;;;;;;;;5062488;28;20407;-54
2021/09/13 12:07:03;;;;;;;1.33;1.23;;;;;;;;;;5066859;28;20440;-54
2021/09/13 12:09:30;;;;;;;1.20;1.10;;;;;;;;;;5047030;28;20524;-53
2021/09/13 12:11:57;;;;;;;1.45;1.35;;;;;;;;;;5067322;28;20017;-56
2021/09/13 12:14:23;;;;;;;2.15;1.40;;;;;;;;;;5068496;28;20413;-54
2021/09/13 12:17:09;;;;;;;1.45;1.35;;;;;;;;;;5067924;28;20027;-54
2021/09/13 12:19:36;;;;;;;1.63;1.52;;;;;;;;;;5068711;28;20104;-51
2021/09/13 12:22:03;;;;;;;1.83;1.67;;;;;;;;;;5067436;28;20035;-49
2021/09/13 12:24:31;;;;;;;1.67;1.55;;;;;;;;;;5068379;28;20032;-52
2021/09/13 12:26:57;;;;;;;1.75;1.65;;;;;;;;;;5068424;28;20036;-52
2021/09/13 12:29:23;;;;;;;1.70;1.58;;;;;;;;;;5067866;28;20034;-50
2021/09/13 12:31:49;;;;;;;1.67;1.48;;;;;;;;;;5066594;28;20499;-52
2021/09/13 12:34:15;;;;;;;1.60;1.33;;;;;;;;;;5068515;28;20095;-52
2021/09/13 12:36:42;;;;;;;1.70;1.60;;;;;;;;;;5067966;28;20025;-48
2021/09/13 12:39:09;;;;;;;1.83;1.38;;;;;;;;;;5068064;28;20458;-51
2021/09/13 12:41:37;;;;;;;1.50;1.20;;;;;;;;;;5067957;28;20035;-50
2021/09/13 12:44:13;;;;;;;1.75;1.63;;;;;;;;;;5067700;28;20560;-50
2021/09/13 12:46:46;;;;;;;1.95;1.48;;;;;;;;;;5067500;28;20033;-52
2021/09/13 12:49:13;;;;;;;1.37;1.27;;;;;;;;;;5067698;28;20080;-52
2021/09/13 12:51:39;;;;;;;1.48;1.30;;;;;;;;;;5067303;28;20028;-52
2021/09/13 12:54:06;;;;;;;1.67;1.58;;;;;;;;;;5067741;28;20021;-49
2021/09/13 12:56:45;;;;;;;1.42;1.33;;;;;;;;;;5067490;28;20120;-54
2021/09/13 12:59:19;;;;;;;1.42;1.25;;;;;;;;;;5067666;28;20025;-53
2021/09/13 13:01:46;;;;;;;1.60;1.33;;;;;;;;;;5066524;28;20078;-52
2021/09/13 13:04:13;;;;;;;1.30;1.20;;;;;;;;;;5067611;28;20555;-54
2021/09/13 13:06:41;;;;;;;1.67;1.23;;;;;;;;;;5067495;28;20029;-53
2021/09/13 13:09:08;;;;;;;1.48;1.38;;;;;;;;;;5067387;28;20027;-53
2021/09/13 13:11:38;;;;;;;1.50;1.40;;;;;;;;;;5067253;28;20464;-53
2021/09/13 13:14:06;;;;;;;1.52;1.42;;;;;;;;;;5067018;28;20025;-53
2021/09/13 13:16:52;;;;;;;3.15;1.42;;;;;;;;;;5067142;28;20078;-54
2021/09/13 13:19:18;;;;;;;1.65;1.48;;;;;;;;;;5064610;28;20032;-56
2021/09/13 13:21:46;;;;;;;2.55;1.38;;;;;;;;;;5066996;28;20086;-55
2021/09/13 13:24:14;;;;;;;2.13;1.70;;;;;;;;;;5078919;28;20032;-55
2021/09/13 13:26:40;;;;;;;1.02;1.00;;;;;;;;;;5085677;28;20115;-55
2021/09/13 13:29:07;;;;;;;1.50;1.40;;;;;;;;;;5086629;28;20058;-54
2021/09/13 13:31:36;;;;;;;1.13;1.02;;;;;;;;;;5088481;28;20123;-55
2021/09/13 13:34:03;;;;;;;1.80;1.40;;;;;;;;;;5077972;28;20017;-55
2021/09/13 13:36:29;;;;;;;1.70;1.52;;;;;;;;;;5089097;28;20410;-54
2021/09/13 13:38:55;;;;;;;1.45;1.20;;;;;;;;;;5067995;28;20131;-53
2021/09/13 13:41:21;;;;;;;1.30;1.20;;;;;;;;;;5068166;28;20024;-50
2021/09/13 13:43:47;;;;;;;1.25;1.15;;;;;;;;;;5067854;28;20036;-52
2021/09/13 13:46:14;;;;;;;2.40;1.58;;;;;;;;;;5067004;28;20100;-53
2021/09/13 13:48:41;;;;;;;1.40;1.30;;;;;;;;;;5066950;28;20033;-55
2021/09/13 13:51:07;;;;;;;1.60;1.40;;;;;;;;;;5066322;28;20392;-55
2021/09/13 13:53:33;;;;;;;2.15;1.90;;;;;;;;;;5066900;28;20277;-53
2021/09/13 13:55:59;;;;;;;1.38;1.27;;;;;;;;;;5066860;28;20028;-49
2021/09/13 13:58:25;;;;;;;1.63;1.52;;;;;;;;;;5066891;28;20074;-51
2021/09/13 14:00:53;;;;;;;2.40;1.73;;;;;;;;;;5066560;28;20069;-54
2021/09/13 14:03:19;;;;;;;1.75;1.17;;;;;;;;;;5066731;28;20634;-55
2021/09/13 14:05:46;;;;;;;2.00;1.50;;;;;;;;;;5067270;28;20020;-54
2021/09/13 14:08:13;;;;;;;1.17;1.10;;;;;;;;;;5066140;28;20089;-54
2021/09/13 14:10:42;;;;;;;1.33;1.08;;;;;;;;;;5066638;28;20036;-55
2021/09/13 14:13:09;;;;;;;1.30;1.20;;;;;;;;;;5066438;28;20079;-54
2021/09/13 14:15:35;;;;;;;1.40;1.10;;;;;;;;;;5066373;28;20070;-55
2021/09/13 14:18:01;;;;;;;0.80;0.80;;;;;;;;;;5065489;28;20025;-53
2021/09/13 14:20:27;;;;;;;1.00;0.90;;;;;;;;;;5066460;28;20040;-51
2021/09/13 14:22:53;;;;;;;1.13;1.00;;;;;;;;;;5066237;28;20087;-51
2021/09/13 14:25:19;;;;;;;0.85;0.85;;;;;;;;;;5065619;28;20036;-51
2021/09/13 14:27:45;;;;;;;1.10;1.10;;;;;;;;;;5065399;28;20568;-50
2021/09/13 14:30:12;;;;;;;1.25;1.00;;;;;;;;;;5067541;28;20032;-54
2021/09/13 14:32:38;;;;;;;1.20;1.10;;;;;;;;;;5068454;28;20029;-53
2021/09/13 14:35:04;;;;;;;1.55;1.08;;;;;;;;;;5067570;28;20099;-51
2021/09/13 14:37:30;;;;;;;1.70;0.90;;;;;;;;;;5067659;28;20027;-50
2021/09/13 14:39:56;;;;;;;0.75;0.75;;;;;;;;;;5067147;28;20414;-51
2021/09/13 14:42:22;;;;;;;0.85;0.77;;;;;;;;;;5067585;28;20495;-53
2021/09/13 14:44:49;;;;;;;0.70;0.70;;;;;;;;;;5067915;28;20082;-54
2021/09/13 14:47:15;;;;;;;0.95;0.80;;;;;;;;;;5068253;28;20025;-52
2021/09/13 14:49:41;;;;;;;0.70;0.70;;;;;;;;;;5067338;28;20029;-54